Time,TemperatureF,DewpointF,PressureIn,WindDirection,WindDirectionDegrees,WindSpeedMPH,WindSpeedGustMPH,Humidity,HourlyPrecipIn,Conditions,Clouds,dailyrainin,SoftwareType,DateUTC
2013-10-01 00:01:00,58.6,55.4,30.05,NNE,22,0.0,0.0,89,0.00,,,0.00,WUHU21623XXSP,2013-10-01 04:01:00,
2013-10-01 00:06:00,58.5,55.3,30.05,East,90,0.0,0.0,89,0.00,,,0.00,WUHU21623XXSP,2013-10-01 04:06:00,
2013-10-01 00:11:00,58.3,55.1,30.05,East,90,0.0,0.0,89,0.00,,,0.00,WUHU21623XXSP,2013-10-01 04:11:00,
2013-10-01 00:16:00,58.8,55.6,30.05,ESE,112,0.0,0.0,89,0.00,,,0.00,WUHU21623XXSP,2013-10-01 04:16:00,
2013-10-01 00:21:00,58.8,55.6,30.05,ESE,112,0.0,0.0,89,0.00,,,0.00,WUHU21623XXSP,2013-10-01 04:21:00,
2013-10-01 00:26:00,58.8,55.6,30.05,ESE,112,0.0,0.0,89,0.00,,,0.00,WUHU21623XXSP,2013-10-01 04:26:00,
2013-10-01 00:32:00,58.6,55.4,30.05,ESE,112,0.0,0.0,89,0.00,,,0.00,WUHU21623XXSP,2013-10-01 04:32:00,
2013-10-01 00:37:00,58.5,55.3,30.05,ESE,112,0.0,0.0,89,0.00,,,0.00,WUHU21623XXSP,2013-10-01 04:37:00,
2013-10-01 00:42:00,58.3,55.1,30.05,East,90,0.0,0.0,89,0.00,,,0.00,WUHU21623XXSP,2013-10-01 04:42:00,
2013-10-01 00:47:00,58.3,55.1,30.05,NNE,22,0.0,0.0,89,0.00,,,0.00,WUHU21623XXSP,2013-10-01 04:47:00,
2013-10-01 00:52:00,58.5,55.3,30.05,NNE,22,0.0,0.0,89,0.00,,,0.00,WUHU21623XXSP,2013-10-01 04:52:00,
2013-10-01 00:57:00,58.3,55.1,30.05,NNE,22,0.0,0.0,89,0.00,,,0.00,WUHU21623XXSP,2013-10-01 04:57:00,
2013-10-01 01:02:00,58.1,54.9,30.04,NNE,22,0.0,0.0,89,0.00,,,0.00,WUHU21623XXSP,2013-10-01 05:02:00,
2013-10-01 01:07:00,57.9,54.7,30.04,East,90,0.0,0.0,89,0.00,,,0.00,WUHU21623XXSP,2013-10-01 05:07:00,
2013-10-01 01:12:00,57.6,54.4,30.04,East,90,0.0,0.0,89,0.00,,,0.00,WUHU21623XXSP,2013-10-01 05:12:00,
2013-10-01 01:17:00,57.6,54.4,30.04,East,90,0.0,0.0,89,0.00,,,0.00,WUHU21623XXSP,2013-10-01 05:17:00,
2013-10-01 01:22:00,57.4,54.2,30.04,East,90,0.0,0.0,89,0.00,,,0.00,WUHU21623XXSP,2013-10-01 05:22:00,
2013-10-01 01:27:00,57.4,54.2,30.04,East,90,0.0,0.0,89,0.00,,,0.00,WUHU21623XXSP,2013-10-01 05:27:00,
2013-10-01 01:32:00,57.2,54.0,30.04,East,90,0.0,0.0,89,0.00,,,0.00,WUHU21623XXSP,2013-10-01 05:32:00,
2013-10-01 01:37:00,57.0,53.8,30.04,East,90,0.0,0.0,89,0.00,,,0.00,WUHU21623XXSP,2013-10-01 05:37:00,
2013-10-01 01:42:00,57.0,53.8,30.04,East,90,0.0,0.0,89,0.00,,,0.00,WUHU21623XXSP,2013-10-01 05:42:00,
2013-10-01 01:47:00,57.0,53.8,30.05,ESE,112,0.0,0.0,89,0.00,,,0.00,WUHU21623XXSP,2013-10-01 05:47:00,
2013-10-01 01:52:00,57.0,53.8,30.04,East,90,0.0,0.0,89,0.00,,,0.00,WUHU21623XXSP,2013-10-01 05:52:00,
2013-10-01 01:57:00,56.8,53.6,30.05,East,90,0.0,0.0,89,0.00,,,0.00,WUHU21623XXSP,2013-10-01 05:57:00,
2013-10-01 02:02:00,56.8,53.6,30.05,East,90,0.0,0.0,89,0.00,,,0.00,WUHU21623XXSP,2013-10-01 06:02:00,
2013-10-01 02:07:00,56.8,53.6,30.05,East,90,0.0,0.0,89,0.00,,,0.00,WUHU21623XXSP,2013-10-01 06:07:00,
2013-10-01 02:12:00,56.7,53.5,30.05,East,90,0.0,0.0,89,0.00,,,0.00,WUHU21623XXSP,2013-10-01 06:12:00,
2013-10-01 02:17:00,56.5,53.3,30.05,East,90,0.0,0.0,89,0.00,,,0.00,WUHU21623XXSP,2013-10-01 06:17:00,
2013-10-01 02:22:00,56.5,53.3,30.05,East,90,0.0,0.0,89,0.00,,,0.00,WUHU21623XXSP,2013-10-01 06:22:00,
2013-10-01 02:27:00,56.5,53.3,30.05,East,90,0.0,0.0,89,0.00,,,0.00,WUHU21623XXSP,2013-10-01 06:27:00,
2013-10-01 02:32:00,56.5,53.3,30.05,East,90,0.0,0.0,89,0.00,,,0.00,WUHU21623XXSP,2013-10-01 06:32:00,
2013-10-01 02:37:00,56.3,53.1,30.05,East,90,0.0,0.0,89,0.00,,,0.00,WUHU21623XXSP,2013-10-01 06:37:00,
2013-10-01 02:43:00,56.3,53.1,30.05,East,90,0.0,0.0,89,0.00,,,0.00,WUHU21623XXSP,2013-10-01 06:43:00,
2013-10-01 02:48:00,56.3,53.1,30.05,East,90,0.0,0.0,89,0.00,,,0.00,WUHU21623XXSP,2013-10-01 06:48:00,
2013-10-01 02:53:00,56.1,52.9,30.05,East,90,0.0,0.0,89,0.00,,,0.00,WUHU21623XXSP,2013-10-01 06:53:00,
2013-10-01 02:58:00,56.1,52.9,30.05,ESE,112,0.0,0.0,89,0.00,,,0.00,WUHU21623XXSP,2013-10-01 06:58:00,
2013-10-01 03:03:00,56.1,52.9,30.05,East,90,0.0,0.0,89,0.00,,,0.00,WUHU21623XXSP,2013-10-01 07:03:00,
2013-10-01 03:08:00,55.9,52.7,30.05,East,90,0.0,0.0,89,0.00,,,0.00,WUHU21623XXSP,2013-10-01 07:08:00,
2013-10-01 03:13:00,55.9,52.7,30.05,East,90,0.0,0.0,89,0.00,,,0.00,WUHU21623XXSP,2013-10-01 07:13:00,
2013-10-01 03:18:00,55.9,52.7,30.05,East,90,0.0,0.0,89,0.00,,,0.00,WUHU21623XXSP,2013-10-01 07:18:00,
2013-10-01 03:23:00,55.9,52.7,30.05,East,90,0.0,0.0,89,0.00,,,0.00,WUHU21623XXSP,2013-10-01 07:23:00,
2013-10-01 03:28:00,55.9,52.7,30.05,ESE,112,0.0,0.0,89,0.00,,,0.00,WUHU21623XXSP,2013-10-01 07:28:00,
2013-10-01 03:33:00,55.9,52.7,30.05,ESE,112,0.0,0.0,89,0.00,,,0.00,WUHU21623XXSP,2013-10-01 07:33:00,
2013-10-01 03:38:00,55.9,52.7,30.05,East,90,0.0,0.0,89,0.00,,,0.00,WUHU21623XXSP,2013-10-01 07:38:00,
2013-10-01 03:43:00,55.9,52.7,30.05,East,90,0.0,0.0,89,0.00,,,0.00,WUHU21623XXSP,2013-10-01 07:43:00,
2013-10-01 03:48:00,55.9,52.7,30.05,ESE,112,0.0,0.0,89,0.00,,,0.00,WUHU21623XXSP,2013-10-01 07:48:00,
2013-10-01 03:53:00,55.9,52.7,30.05,ESE,112,0.0,0.0,89,0.00,,,0.00,WUHU21623XXSP,2013-10-01 07:53:00,
2013-10-01 03:59:00,56.1,52.9,30.05,ESE,112,0.0,0.0,89,0.00,,,0.00,WUHU21623XXSP,2013-10-01 07:59:00,
2013-10-01 04:04:00,56.1,52.9,30.06,ESE,112,0.0,0.0,89,0.00,,,0.00,WUHU21623XXSP,2013-10-01 08:04:00,
2013-10-01 04:09:00,56.1,52.9,30.06,ESE,112,0.0,0.0,89,0.00,,,0.00,WUHU21623XXSP,2013-10-01 08:09:00,
2013-10-01 04:14:00,56.3,53.1,30.06,East,90,0.0,0.0,89,0.00,,,0.00,WUHU21623XXSP,2013-10-01 08:14:00,
2013-10-01 04:19:00,56.3,53.1,30.06,East,90,0.0,0.0,89,0.00,,,0.00,WUHU21623XXSP,2013-10-01 08:19:00,
2013-10-01 04:24:00,56.5,53.3,30.06,ESE,112,0.0,0.0,89,0.00,,,0.00,WUHU21623XXSP,2013-10-01 08:24:00,
2013-10-01 04:29:00,56.5,53.3,30.06,South,180,0.0,0.0,89,0.00,,,0.00,WUHU21623XXSP,2013-10-01 08:29:00,
2013-10-01 04:34:00,56.8,53.6,30.07,ESE,112,0.0,0.0,89,0.00,,,0.00,WUHU21623XXSP,2013-10-01 08:34:00,
2013-10-01 04:39:00,56.8,53.6,30.07,East,90,0.0,0.0,89,0.00,,,0.00,WUHU21623XXSP,2013-10-01 08:39:00,
2013-10-01 04:44:00,56.8,53.6,30.07,ESE,112,0.0,0.0,89,0.00,,,0.00,WUHU21623XXSP,2013-10-01 08:44:00,
2013-10-01 04:49:00,57.0,53.8,30.07,ESE,112,0.0,0.0,89,0.00,,,0.00,WUHU21623XXSP,2013-10-01 08:49:00,
2013-10-01 04:54:00,57.0,53.8,30.07,ESE,112,0.0,0.0,89,0.00,,,0.00,WUHU21623XXSP,2013-10-01 08:54:00,
2013-10-01 04:59:00,57.4,54.2,30.07,East,90,0.0,0.0,89,0.00,,,0.00,WUHU21623XXSP,2013-10-01 08:59:00,
2013-10-01 05:04:00,57.7,54.5,30.07,East,90,0.0,0.0,89,0.00,,,0.00,WUHU21623XXSP,2013-10-01 09:04:00,
2013-10-01 05:09:00,58.1,54.9,30.07,East,90,0.0,0.0,89,0.00,,,0.00,WUHU21623XXSP,2013-10-01 09:09:00,
2013-10-01 05:14:00,58.3,55.1,30.07,East,90,0.0,0.0,89,0.00,,,0.00,WUHU21623XXSP,2013-10-01 09:14:00,
2013-10-01 05:20:00,58.6,55.4,30.07,ESE,112,0.0,0.0,89,0.00,,,0.00,WUHU21623XXSP,2013-10-01 09:20:00,
2013-10-01 05:25:00,58.8,55.6,30.08,South,180,0.0,0.0,89,0.00,,,0.00,WUHU21623XXSP,2013-10-01 09:25:00,
2013-10-01 05:30:00,58.8,55.6,30.08,SSW,202,0.0,0.0,89,0.00,,,0.00,WUHU21623XXSP,2013-10-01 09:30:00,
2013-10-01 05:35:00,58.8,55.6,30.08,NNE,22,0.0,0.0,89,0.00,,,0.00,WUHU21623XXSP,2013-10-01 09:35:00,
2013-10-01 05:40:00,58.6,55.4,30.08,ESE,112,0.0,0.0,89,0.00,,,0.00,WUHU21623XXSP,2013-10-01 09:40:00,
2013-10-01 05:47:00,58.6,55.4,30.08,ESE,112,0.0,0.0,89,0.00,,,0.00,WUHU21623XXSP,2013-10-01 09:47:00,
2013-10-01 05:57:00,58.6,55.4,30.08,ESE,112,0.0,0.0,89,0.00,,,0.00,WUHU21623XXSP,2013-10-01 09:57:00,
2013-10-01 06:02:00,58.5,55.3,30.08,ESE,112,0.0,0.0,89,0.00,,,0.00,WUHU21623XXSP,2013-10-01 10:02:00,
2013-10-01 06:07:00,58.5,55.3,30.08,ESE,112,0.0,0.0,89,0.00,,,0.00,WUHU21623XXSP,2013-10-01 10:07:00,
2013-10-01 06:12:00,58.6,55.4,30.08,East,90,0.0,0.0,89,0.00,,,0.00,WUHU21623XXSP,2013-10-01 10:12:00,
2013-10-01 06:17:00,58.6,55.4,30.08,East,90,0.0,0.0,89,0.00,,,0.00,WUHU21623XXSP,2013-10-01 10:17:00,
2013-10-01 06:22:00,58.6,55.4,30.09,East,90,0.0,0.0,89,0.00,,,0.00,WUHU21623XXSP,2013-10-01 10:22:00,
2013-10-01 06:27:00,58.6,55.4,30.09,East,90,0.0,0.0,89,0.00,,,0.00,WUHU21623XXSP,2013-10-01 10:27:00,
2013-10-01 06:32:00,58.6,55.4,30.09,East,90,0.0,0.0,89,0.00,,,0.00,WUHU21623XXSP,2013-10-01 10:32:00,
2013-10-01 06:37:00,58.6,55.4,30.09,East,90,0.0,0.0,89,0.00,,,0.00,WUHU21623XXSP,2013-10-01 10:37:00,
2013-10-01 06:42:00,58.6,55.4,30.09,East,90,0.0,0.0,89,0.00,,,0.00,WUHU21623XXSP,2013-10-01 10:42:00,
2013-10-01 06:47:00,58.8,55.6,30.09,East,90,0.0,0.0,89,0.00,,,0.00,WUHU21623XXSP,2013-10-01 10:47:00,
2013-10-01 06:53:00,58.8,55.6,30.09,East,90,0.0,0.0,89,0.00,,,0.00,WUHU21623XXSP,2013-10-01 10:53:00,
2013-10-01 06:58:00,58.8,55.6,30.10,East,90,0.0,0.0,89,0.00,,,0.00,WUHU21623XXSP,2013-10-01 10:58:00,
2013-10-01 07:03:00,58.8,55.6,30.10,East,90,0.0,0.0,89,0.00,,,0.00,WUHU21623XXSP,2013-10-01 11:03:00,
2013-10-01 07:08:00,58.8,55.6,30.10,East,90,0.0,0.0,89,0.00,,,0.00,WUHU21623XXSP,2013-10-01 11:08:00,
2013-10-01 07:13:00,58.8,55.6,30.10,East,90,0.0,0.0,89,0.00,,,0.00,WUHU21623XXSP,2013-10-01 11:13:00,
2013-10-01 07:18:00,58.8,55.6,30.11,East,90,0.0,0.0,89,0.00,,,0.00,WUHU21623XXSP,2013-10-01 11:18:00,
2013-10-01 07:23:00,58.8,55.6,30.11,East,90,0.0,0.0,89,0.00,,,0.00,WUHU21623XXSP,2013-10-01 11:23:00,
2013-10-01 07:28:00,58.8,55.6,30.11,East,90,0.0,0.0,89,0.00,,,0.00,WUHU21623XXSP,2013-10-01 11:28:00,
2013-10-01 07:33:00,58.8,55.6,30.11,East,90,0.0,0.0,89,0.00,,,0.00,WUHU21623XXSP,2013-10-01 11:33:00,
2013-10-01 07:38:00,58.8,55.6,30.11,East,90,0.0,0.0,89,0.00,,,0.00,WUHU21623XXSP,2013-10-01 11:38:00,
2013-10-01 07:43:00,58.8,55.6,30.11,East,90,0.0,0.0,89,0.00,,,0.00,WUHU21623XXSP,2013-10-01 11:43:00,
2013-10-01 07:48:00,58.8,55.6,30.11,East,90,0.0,0.0,89,0.00,,,0.00,WUHU21623XXSP,2013-10-01 11:48:00,
2013-10-01 07:53:00,59.2,56.0,30.12,East,90,0.0,0.0,89,0.00,,,0.00,WUHU21623XXSP,2013-10-01 11:53:00,
2013-10-01 07:59:00,58.8,55.6,30.12,East,90,0.0,0.0,89,0.00,,,0.00,WUHU21623XXSP,2013-10-01 11:59:00,
2013-10-01 08:04:00,59.2,56.0,30.12,NNE,22,0.0,0.0,89,0.00,,,0.00,WUHU21623XXSP,2013-10-01 12:04:00,
2013-10-01 08:09:00,59.2,56.0,30.12,East,90,0.0,0.0,89,0.00,,,0.00,WUHU21623XXSP,2013-10-01 12:09:00,
2013-10-01 08:14:00,59.4,56.2,30.13,ESE,112,0.0,0.0,89,0.00,,,0.00,WUHU21623XXSP,2013-10-01 12:14:00,
2013-10-01 08:19:00,59.5,56.3,30.13,ESE,112,0.0,0.0,89,0.00,,,0.00,WUHU21623XXSP,2013-10-01 12:19:00,
2013-10-01 08:24:00,59.5,56.3,30.13,East,90,0.0,0.0,89,0.00,,,0.00,WUHU21623XXSP,2013-10-01 12:24:00,
2013-10-01 08:29:00,59.5,56.3,30.13,East,90,0.0,0.0,89,0.00,,,0.00,WUHU21623XXSP,2013-10-01 12:29:00,
2013-10-01 08:34:00,59.5,56.3,30.13,East,90,0.0,0.0,89,0.00,,,0.00,WUHU21623XXSP,2013-10-01 12:34:00,
2013-10-01 08:39:00,59.7,56.5,30.13,ESE,112,0.0,0.0,89,0.00,,,0.00,WUHU21623XXSP,2013-10-01 12:39:00,
2013-10-01 08:44:00,59.9,56.7,30.14,ESE,112,0.0,0.0,89,0.00,,,0.00,WUHU21623XXSP,2013-10-01 12:44:00,
2013-10-01 08:49:00,60.1,56.9,30.14,ESE,112,0.0,0.0,89,0.00,,,0.00,WUHU21623XXSP,2013-10-01 12:49:00,
2013-10-01 08:55:00,60.4,57.2,30.14,ESE,112,0.0,0.0,89,0.00,,,0.00,WUHU21623XXSP,2013-10-01 12:55:00,
2013-10-01 09:00:00,60.4,57.2,30.14,ESE,112,0.0,0.0,89,0.00,,,0.00,WUHU21623XXSP,2013-10-01 13:00:00,
2013-10-01 09:05:00,60.6,57.4,30.14,ESE,112,0.0,0.0,89,0.00,,,0.00,WUHU21623XXSP,2013-10-01 13:05:00,
2013-10-01 09:10:00,61.0,57.8,30.14,ESE,112,0.0,0.0,89,0.00,,,0.00,WUHU21623XXSP,2013-10-01 13:10:00,
2013-10-01 09:15:00,61.2,57.9,30.14,ESE,112,0.0,0.0,89,0.00,,,0.00,WUHU21623XXSP,2013-10-01 13:15:00,
2013-10-01 09:20:00,61.3,58.1,30.14,ESE,112,0.0,0.0,89,0.00,,,0.00,WUHU21623XXSP,2013-10-01 13:20:00,
2013-10-01 09:25:00,61.5,58.3,30.14,ESE,112,0.0,0.0,89,0.00,,,0.00,WUHU21623XXSP,2013-10-01 13:25:00,
2013-10-01 09:30:00,61.9,58.7,30.14,NNE,22,0.0,0.0,89,0.00,,,0.00,WUHU21623XXSP,2013-10-01 13:30:00,
2013-10-01 09:35:00,62.4,59.2,30.14,ESE,112,0.0,0.0,89,0.00,,,0.00,WUHU21623XXSP,2013-10-01 13:35:00,
2013-10-01 09:40:00,62.6,59.4,30.14,South,180,0.0,0.0,89,0.00,,,0.00,WUHU21623XXSP,2013-10-01 13:40:00,
2013-10-01 09:45:00,62.8,59.6,30.15,NNE,22,0.0,0.0,89,0.00,,,0.00,WUHU21623XXSP,2013-10-01 13:45:00,
2013-10-01 09:50:00,63.1,59.9,30.15,East,90,0.0,0.0,89,0.00,,,0.00,WUHU21623XXSP,2013-10-01 13:50:00,
2013-10-01 09:56:00,63.5,60.3,30.15,West,270,0.0,0.0,89,0.00,,,0.00,WUHU21623XXSP,2013-10-01 13:56:00,
2013-10-01 10:01:00,64.6,61.0,30.14,WNW,292,0.0,0.0,88,0.00,,,0.00,WUHU21623XXSP,2013-10-01 14:01:00,
2013-10-01 10:06:00,65.7,61.7,30.15,NNE,22,0.0,0.0,87,0.00,,,0.00,WUHU21623XXSP,2013-10-01 14:06:00,
2013-10-01 10:11:00,66.2,62.2,30.15,SSW,202,0.0,0.0,87,0.00,,,0.00,WUHU21623XXSP,2013-10-01 14:11:00,
2013-10-01 10:16:00,66.0,61.3,30.15,ESE,112,0.0,0.0,85,0.00,,,0.00,WUHU21623XXSP,2013-10-01 14:16:00,
2013-10-01 10:21:00,66.9,62.2,30.15,North,0,0.0,0.0,85,0.00,,,0.00,WUHU21623XXSP,2013-10-01 14:21:00,
2013-10-01 10:26:00,68.2,63.2,30.15,WNW,292,0.0,0.0,84,0.00,,,0.00,WUHU21623XXSP,2013-10-01 14:26:00,
2013-10-01 10:31:00,68.4,63.0,30.15,WNW,292,0.0,0.0,83,0.00,,,0.00,WUHU21623XXSP,2013-10-01 14:31:00,
2013-10-01 10:37:00,70.3,64.5,30.15,WNW,292,0.0,0.0,82,0.00,,,0.00,WUHU21623XXSP,2013-10-01 14:37:00,
2013-10-01 10:42:00,70.7,63.5,30.15,SSW,202,0.0,0.0,78,0.00,,,0.00,WUHU21623XXSP,2013-10-01 14:42:00,
2013-10-01 10:47:00,70.3,63.1,30.15,West,270,0.0,0.0,78,0.00,,,0.00,WUHU21623XXSP,2013-10-01 14:47:00,
2013-10-01 10:52:00,69.6,62.4,30.15,West,270,0.0,0.0,78,0.00,,,0.00,WUHU21623XXSP,2013-10-01 14:52:00,
2013-10-01 10:57:00,69.4,62.6,30.15,WNW,292,0.0,0.0,79,0.00,,,0.00,WUHU21623XXSP,2013-10-01 14:57:00,
2013-10-01 11:02:00,70.2,62.9,30.14,ESE,112,0.0,0.0,78,0.00,,,0.00,WUHU21623XXSP,2013-10-01 15:02:00,
2013-10-01 11:07:00,71.8,64.2,30.14,West,270,0.0,0.0,77,0.00,,,0.00,WUHU21623XXSP,2013-10-01 15:07:00,
2013-10-01 11:12:00,73.0,64.7,30.14,WNW,292,0.0,0.0,75,0.00,,,0.00,WUHU21623XXSP,2013-10-01 15:12:00,
2013-10-01 11:17:00,73.0,64.7,30.14,WNW,292,0.0,0.0,75,0.00,,,0.00,WUHU21623XXSP,2013-10-01 15:17:00,
2013-10-01 11:22:00,73.6,64.4,30.14,North,0,0.0,0.0,73,0.00,,,0.00,WUHU21623XXSP,2013-10-01 15:22:00,
2013-10-01 11:27:00,73.0,64.3,30.14,WNW,292,0.0,0.0,74,0.00,,,0.00,WUHU21623XXSP,2013-10-01 15:27:00,
2013-10-01 11:32:00,73.4,64.3,30.14,SSW,202,0.0,0.0,73,0.00,,,0.00,WUHU21623XXSP,2013-10-01 15:32:00,
2013-10-01 11:37:00,73.8,64.2,30.14,South,180,0.0,0.0,72,0.00,,,0.00,WUHU21623XXSP,2013-10-01 15:37:00,
2013-10-01 11:42:00,74.8,64.8,30.14,WNW,292,0.0,0.0,71,0.00,,,0.00,WUHU21623XXSP,2013-10-01 15:42:00,
2013-10-01 11:47:00,75.4,64.5,30.14,WNW,292,0.0,0.0,69,0.00,,,0.00,WUHU21623XXSP,2013-10-01 15:47:00,
2013-10-01 11:52:00,75.9,64.1,30.14,SSW,202,0.0,0.0,67,0.00,,,0.00,WUHU21623XXSP,2013-10-01 15:52:00,
2013-10-01 11:58:00,75.9,65.0,30.14,WNW,292,0.0,0.0,69,0.00,,,0.00,WUHU21623XXSP,2013-10-01 15:58:00,
2013-10-01 12:03:00,75.9,64.6,30.14,West,270,0.0,0.0,68,0.00,,,0.00,WUHU21623XXSP,2013-10-01 16:03:00,
2013-10-01 12:08:00,76.1,64.3,30.13,SSW,202,0.0,0.0,67,0.00,,,0.00,WUHU21623XXSP,2013-10-01 16:08:00,
2013-10-01 12:13:00,76.1,64.8,30.13,West,270,0.0,0.0,68,0.00,,,0.00,WUHU21623XXSP,2013-10-01 16:13:00,
2013-10-01 12:18:00,76.1,64.8,30.13,West,270,0.0,0.0,68,0.00,,,0.00,WUHU21623XXSP,2013-10-01 16:18:00,
2013-10-01 12:23:00,76.3,64.9,30.13,SSW,202,0.0,0.0,68,0.00,,,0.00,WUHU21623XXSP,2013-10-01 16:23:00,
2013-10-01 12:28:00,75.7,64.4,30.13,WNW,292,0.0,0.0,68,0.00,,,0.00,WUHU21623XXSP,2013-10-01 16:28:00,
2013-10-01 12:33:00,74.7,64.3,30.13,WNW,292,0.0,0.0,70,0.00,,,0.00,WUHU21623XXSP,2013-10-01 16:33:00,
2013-10-01 12:38:00,74.1,64.2,30.13,North,0,0.0,0.0,71,0.00,,,0.00,WUHU21623XXSP,2013-10-01 16:38:00,
2013-10-01 12:43:00,75.4,64.1,30.12,East,90,0.0,0.0,68,0.00,,,0.00,WUHU21623XXSP,2013-10-01 16:43:00,
2013-10-01 12:48:00,76.6,65.3,30.12,West,270,0.0,0.0,68,0.00,,,0.00,WUHU21623XXSP,2013-10-01 16:48:00,
2013-10-01 12:54:00,76.3,64.5,30.12,WNW,292,0.0,0.0,67,0.00,,,0.00,WUHU21623XXSP,2013-10-01 16:54:00,
2013-10-01 12:59:00,75.0,64.1,30.12,SSW,202,0.0,0.0,69,0.00,,,0.00,WUHU21623XXSP,2013-10-01 16:59:00,
2013-10-01 13:04:00,75.0,64.6,30.12,SSW,202,0.0,0.0,70,0.00,,,0.00,WUHU21623XXSP,2013-10-01 17:04:00,
2013-10-01 13:09:00,75.0,64.6,30.12,West,270,0.0,0.0,70,0.00,,,0.00,WUHU21623XXSP,2013-10-01 17:09:00,
2013-10-01 13:14:00,73.6,63.7,30.11,SSW,202,0.0,0.0,71,0.00,,,0.00,WUHU21623XXSP,2013-10-01 17:14:00,
2013-10-01 13:19:00,73.2,63.7,30.11,WNW,292,0.0,0.0,72,0.00,,,0.00,WUHU21623XXSP,2013-10-01 17:19:00,
2013-10-01 13:24:00,73.8,65.0,30.11,North,0,0.0,0.0,74,0.00,,,0.00,WUHU21623XXSP,2013-10-01 17:24:00,
2013-10-01 13:29:00,75.9,66.6,30.11,North,0,0.0,0.0,73,0.00,,,0.00,WUHU21623XXSP,2013-10-01 17:29:00,
2013-10-01 13:34:00,77.7,67.2,30.10,North,0,0.0,0.0,70,0.00,,,0.00,WUHU21623XXSP,2013-10-01 17:34:00,
2013-10-01 13:39:00,79.3,67.0,30.10,WNW,292,0.0,0.0,66,0.00,,,0.00,WUHU21623XXSP,2013-10-01 17:39:00,
2013-10-01 13:44:00,79.3,67.0,30.10,SSW,202,0.0,0.0,66,0.00,,,0.00,WUHU21623XXSP,2013-10-01 17:44:00,
2013-10-01 13:49:00,78.6,65.4,30.10,NNE,22,0.0,0.0,64,0.00,,,0.00,WUHU21623XXSP,2013-10-01 17:49:00,
2013-10-01 13:54:00,78.1,65.3,30.09,SSW,202,0.0,0.0,65,0.00,,,0.00,WUHU21623XXSP,2013-10-01 17:54:00,
2013-10-01 13:59:00,77.9,66.5,30.09,West,270,0.0,0.0,68,0.00,,,0.00,WUHU21623XXSP,2013-10-01 17:59:00,
2013-10-01 14:04:00,77.7,66.3,30.09,West,270,0.0,0.0,68,0.00,,,0.00,WUHU21623XXSP,2013-10-01 18:04:00,
2013-10-01 14:09:00,78.3,66.4,30.09,SSW,202,0.0,0.0,67,0.00,,,0.00,WUHU21623XXSP,2013-10-01 18:09:00,
2013-10-01 14:17:00,79.3,67.0,30.08,East,90,0.0,0.0,66,0.00,,,0.00,WUHU21623XXSP,2013-10-01 18:17:00,
2013-10-01 14:23:00,81.0,67.2,30.08,WNW,292,0.0,0.0,63,0.00,,,0.00,WUHU21623XXSP,2013-10-01 18:23:00,
2013-10-01 14:28:00,81.0,67.2,30.08,West,270,0.0,0.0,63,0.00,,,0.00,WUHU21623XXSP,2013-10-01 18:28:00,
2013-10-01 14:33:00,80.8,67.0,30.08,WNW,292,0.0,0.0,63,0.00,,,0.00,WUHU21623XXSP,2013-10-01 18:33:00,
2013-10-01 14:39:00,81.7,67.4,30.08,South,180,0.0,0.0,62,0.00,,,0.00,WUHU21623XXSP,2013-10-01 18:39:00,
2013-10-01 14:44:00,82.2,66.9,30.07,West,270,0.0,0.0,60,0.00,,,0.00,WUHU21623XXSP,2013-10-01 18:44:00,
2013-10-01 14:49:00,82.6,67.7,30.07,North,0,0.0,0.0,61,0.00,,,0.00,WUHU21623XXSP,2013-10-01 18:49:00,
2013-10-01 14:54:00,81.3,65.6,30.07,North,0,0.0,0.0,59,0.00,,,0.00,WUHU21623XXSP,2013-10-01 18:54:00,
2013-10-01 14:59:00,81.0,66.3,30.06,WNW,292,0.0,0.0,61,0.00,,,0.00,WUHU21623XXSP,2013-10-01 18:59:00,
2013-10-01 15:04:00,81.1,65.6,30.06,North,0,0.0,0.0,61,0.00,,,0.00,WUHU21623XXSP,2013-10-01 19:04:00,
2013-10-01 15:09:00,80.4,65.3,30.06,West,270,0.0,0.0,60,0.00,,,0.00,WUHU21623XXSP,2013-10-01 19:09:00,
2013-10-01 15:15:00,79.5,65.8,30.06,ESE,112,0.0,0.0,63,0.00,,,0.00,WUHU21623XXSP,2013-10-01 19:15:00,
2013-10-01 15:20:00,79.3,65.2,30.06,West,270,0.0,0.0,62,0.00,,,0.00,WUHU21623XXSP,2013-10-01 19:20:00,
2013-10-01 15:25:00,79.0,64.9,30.06,SSW,202,0.0,0.0,62,0.00,,,0.00,WUHU21623XXSP,2013-10-01 19:25:00,
2013-10-01 15:30:00,79.5,65.8,30.06,West,270,0.0,0.0,63,0.00,,,0.00,WUHU21623XXSP,2013-10-01 19:30:00,
2013-10-01 15:35:00,79.5,64.9,30.06,SSW,202,0.0,0.0,61,0.00,,,0.00,WUHU21623XXSP,2013-10-01 19:35:00,
2013-10-01 15:40:00,78.6,65.0,30.06,WNW,292,0.0,0.0,63,0.00,,,0.00,WUHU21623XXSP,2013-10-01 19:40:00,
2013-10-01 15:45:00,77.7,65.0,30.06,SSW,202,0.0,0.0,65,0.00,,,0.00,WUHU21623XXSP,2013-10-01 19:45:00,
2013-10-01 15:50:00,76.8,65.5,30.06,WNW,292,0.0,0.0,68,0.00,,,0.00,WUHU21623XXSP,2013-10-01 19:50:00,
2013-10-01 15:55:00,76.8,65.9,30.05,North,0,0.0,0.0,69,0.00,,,0.00,WUHU21623XXSP,2013-10-01 19:55:00,
2013-10-01 16:00:00,76.5,65.1,30.06,South,180,0.0,0.0,68,0.00,,,0.00,WUHU21623XXSP,2013-10-01 20:00:00,
2013-10-01 16:05:00,76.8,65.0,30.05,East,90,0.0,0.0,67,0.00,,,0.00,WUHU21623XXSP,2013-10-01 20:05:00,
2013-10-01 16:10:00,78.1,65.3,30.05,SSW,202,0.0,0.0,65,0.00,,,0.00,WUHU21623XXSP,2013-10-01 20:10:00,
2013-10-01 16:15:00,78.6,65.4,30.05,South,180,0.0,0.0,64,0.00,,,0.00,WUHU21623XXSP,2013-10-01 20:15:00,
2013-10-01 16:20:00,79.0,65.3,30.05,North,0,0.0,0.0,63,0.00,,,0.00,WUHU21623XXSP,2013-10-01 20:20:00,
2013-10-01 16:26:00,78.6,65.4,30.05,South,180,0.0,0.0,64,0.00,,,0.00,WUHU21623XXSP,2013-10-01 20:26:00,
2013-10-01 16:31:00,79.2,65.5,30.05,ESE,112,0.0,0.0,63,0.00,,,0.00,WUHU21623XXSP,2013-10-01 20:31:00,
2013-10-01 16:36:00,79.3,64.8,30.05,ESE,112,0.0,0.0,61,0.00,,,0.00,WUHU21623XXSP,2013-10-01 20:36:00,
2013-10-01 16:41:00,79.3,64.8,30.05,SSW,202,0.0,0.0,61,0.00,,,0.00,WUHU21623XXSP,2013-10-01 20:41:00,
2013-10-01 16:46:00,79.3,65.6,30.05,East,90,0.0,0.0,63,0.00,,,0.00,WUHU21623XXSP,2013-10-01 20:46:00,
2013-10-01 16:51:00,79.3,65.6,30.04,North,0,0.0,0.0,63,0.00,,,0.00,WUHU21623XXSP,2013-10-01 20:51:00,
2013-10-01 16:56:00,78.8,65.6,30.04,NNE,22,0.0,0.0,64,0.00,,,0.00,WUHU21623XXSP,2013-10-01 20:56:00,
2013-10-01 17:02:00,78.6,65.4,30.04,NNE,22,0.0,0.0,64,0.00,,,0.00,WUHU21623XXSP,2013-10-01 21:02:00,
2013-10-01 17:07:00,78.4,65.2,30.04,WNW,292,0.0,0.0,64,0.00,,,0.00,WUHU21623XXSP,2013-10-01 21:07:00,
2013-10-01 17:13:00,78.1,65.3,30.04,West,270,0.0,0.0,65,0.00,,,0.00,WUHU21623XXSP,2013-10-01 21:13:00,
2013-10-01 17:18:00,78.1,65.8,30.04,North,0,0.0,0.0,66,0.00,,,0.00,WUHU21623XXSP,2013-10-01 21:18:00,
2013-10-01 17:23:00,77.4,66.0,30.04,SSW,202,0.0,0.0,68,0.00,,,0.00,WUHU21623XXSP,2013-10-01 21:23:00,
2013-10-01 17:28:00,77.2,65.4,30.04,SSW,202,0.0,0.0,67,0.00,,,0.00,WUHU21623XXSP,2013-10-01 21:28:00,
2013-10-01 17:33:00,77.2,64.9,30.04,West,270,0.0,0.0,66,0.00,,,0.00,WUHU21623XXSP,2013-10-01 21:33:00,
2013-10-01 17:38:00,76.8,65.0,30.04,SSW,202,0.0,0.0,67,0.00,,,0.00,WUHU21623XXSP,2013-10-01 21:38:00,
2013-10-01 17:43:00,76.8,65.5,30.04,NNE,22,0.0,0.0,68,0.00,,,0.00,WUHU21623XXSP,2013-10-01 21:43:00,
2013-10-01 17:48:00,76.8,64.6,30.04,SSW,202,0.0,0.0,66,0.00,,,0.00,WUHU21623XXSP,2013-10-01 21:48:00,
2013-10-01 17:54:00,76.8,64.6,30.05,SSW,202,0.0,0.0,66,0.00,,,0.00,WUHU21623XXSP,2013-10-01 21:54:00,
2013-10-01 17:59:00,76.3,64.9,30.05,SSW,202,0.0,0.0,68,0.00,,,0.00,WUHU21623XXSP,2013-10-01 21:59:00,
2013-10-01 18:04:00,76.3,64.9,30.05,East,90,0.0,0.0,68,0.00,,,0.00,WUHU21623XXSP,2013-10-01 22:04:00,
2013-10-01 18:09:00,76.8,65.0,30.05,SSW,202,0.0,0.0,67,0.00,,,0.00,WUHU21623XXSP,2013-10-01 22:09:00,
2013-10-01 18:14:00,76.6,65.3,30.05,SSW,202,0.0,0.0,68,0.00,,,0.00,WUHU21623XXSP,2013-10-01 22:14:00,
2013-10-01 18:19:00,75.7,65.3,30.05,SSW,202,0.0,0.0,70,0.00,,,0.00,WUHU21623XXSP,2013-10-01 22:19:00,
2013-10-01 18:25:00,75.4,65.3,30.05,SSW,202,0.0,0.0,71,0.00,,,0.00,WUHU21623XXSP,2013-10-01 22:25:00,
2013-10-01 18:30:00,75.0,65.8,30.05,ESE,112,0.0,0.0,73,0.00,,,0.00,WUHU21623XXSP,2013-10-01 22:30:00,
2013-10-01 18:43:00,73.8,65.0,30.05,ESE,112,0.0,0.0,74,0.00,,,0.00,WUHU21623XXSP,2013-10-01 22:43:00,
2013-10-01 18:53:00,72.9,65.2,30.05,East,90,0.0,0.0,77,0.00,,,0.00,WUHU21623XXSP,2013-10-01 22:53:00,
2013-10-01 18:58:00,72.5,65.6,30.05,East,90,0.0,0.0,79,0.00,,,0.00,WUHU21623XXSP,2013-10-01 22:58:00,
2013-10-01 19:03:00,71.8,65.3,30.05,South,180,0.0,0.0,80,0.00,,,0.00,WUHU21623XXSP,2013-10-01 23:03:00,
2013-10-01 19:08:00,71.4,65.3,30.05,ESE,112,0.0,0.0,81,0.00,,,0.00,WUHU21623XXSP,2013-10-01 23:08:00,
2013-10-01 19:13:00,70.7,64.9,30.06,ESE,112,0.0,0.0,82,0.00,,,0.00,WUHU21623XXSP,2013-10-01 23:13:00,
2013-10-01 19:18:00,70.3,64.9,30.05,East,90,0.0,0.0,83,0.00,,,0.00,WUHU21623XXSP,2013-10-01 23:18:00,
2013-10-01 19:23:00,70.0,64.5,30.05,East,90,0.0,0.0,83,0.00,,,0.00,WUHU21623XXSP,2013-10-01 23:23:00,
2013-10-01 19:28:00,69.4,64.3,30.06,ESE,112,0.0,0.0,84,0.00,,,0.00,WUHU21623XXSP,2013-10-01 23:28:00,
2013-10-01 19:33:00,68.9,63.8,30.06,ESE,112,0.0,0.0,84,0.00,,,0.00,WUHU21623XXSP,2013-10-01 23:33:00,
2013-10-01 19:38:00,68.7,63.7,30.06,ESE,112,0.0,0.0,84,0.00,,,0.00,WUHU21623XXSP,2013-10-01 23:38:00,
2013-10-01 19:43:00,68.4,63.7,30.06,ESE,112,0.0,0.0,85,0.00,,,0.00,WUHU21623XXSP,2013-10-01 23:43:00,
2013-10-01 19:49:00,68.0,63.3,30.06,East,90,0.0,0.0,85,0.00,,,0.00,WUHU21623XXSP,2013-10-01 23:49:00,
2013-10-01 19:54:00,67.6,63.0,30.06,East,90,0.0,0.0,85,0.00,,,0.00,WUHU21623XXSP,2013-10-01 23:54:00,
2013-10-01 19:59:00,67.3,62.6,30.06,ESE,112,0.0,0.0,85,0.00,,,0.00,WUHU21623XXSP,2013-10-01 23:59:00,
2013-10-01 20:04:00,66.9,62.6,30.06,East,90,0.0,0.0,86,0.00,,,0.00,WUHU21623XXSP,2013-10-02 00:04:00,
2013-10-01 20:09:00,66.7,62.4,30.06,NNE,22,0.0,0.0,86,0.00,,,0.00,WUHU21623XXSP,2013-10-02 00:09:00,
2013-10-01 20:14:00,66.6,62.2,30.06,East,90,0.0,0.0,86,0.00,,,0.00,WUHU21623XXSP,2013-10-02 00:14:00,
2013-10-01 20:19:00,66.4,62.3,30.06,NNE,22,0.0,0.0,87,0.00,,,0.00,WUHU21623XXSP,2013-10-02 00:19:00,
2013-10-01 20:24:00,66.0,62.0,30.06,NNE,22,0.0,0.0,87,0.00,,,0.00,WUHU21623XXSP,2013-10-02 00:24:00,
2013-10-01 20:29:00,66.0,62.0,30.07,NNE,22,0.0,0.0,87,0.00,,,0.00,WUHU21623XXSP,2013-10-02 00:29:00,
2013-10-01 20:34:00,65.8,61.8,30.06,East,90,0.0,0.0,87,0.00,,,0.00,WUHU21623XXSP,2013-10-02 00:34:00,
2013-10-01 20:39:00,65.8,61.8,30.07,East,90,0.0,0.0,87,0.00,,,0.00,WUHU21623XXSP,2013-10-02 00:39:00,
2013-10-01 20:44:00,65.7,61.7,30.07,ESE,112,0.0,0.0,87,0.00,,,0.00,WUHU21623XXSP,2013-10-02 00:44:00,
2013-10-01 20:49:00,65.3,61.3,30.07,East,90,0.0,0.0,87,0.00,,,0.00,WUHU21623XXSP,2013-10-02 00:49:00,
2013-10-01 20:54:00,65.1,61.2,30.07,East,90,0.0,0.0,87,0.00,,,0.00,WUHU21623XXSP,2013-10-02 00:54:00,
2013-10-01 20:59:00,64.9,61.0,30.07,East,90,0.0,0.0,87,0.00,,,0.00,WUHU21623XXSP,2013-10-02 00:59:00,
2013-10-01 21:05:00,64.9,61.3,30.07,East,90,0.0,0.0,88,0.00,,,0.00,WUHU21623XXSP,2013-10-02 01:05:00,
2013-10-01 21:10:00,64.8,61.2,30.07,East,90,0.0,0.0,88,0.00,,,0.00,WUHU21623XXSP,2013-10-02 01:10:00,
2013-10-01 21:15:00,64.6,61.0,30.08,East,90,0.0,0.0,88,0.00,,,0.00,WUHU21623XXSP,2013-10-02 01:15:00,
2013-10-01 21:20:00,64.6,61.0,30.08,East,90,0.0,0.0,88,0.00,,,0.00,WUHU21623XXSP,2013-10-02 01:20:00,
2013-10-01 21:25:00,64.2,60.7,30.08,ESE,112,0.0,0.0,88,0.00,,,0.00,WUHU21623XXSP,2013-10-02 01:25:00,
2013-10-01 21:30:00,64.2,60.7,30.08,East,90,0.0,0.0,88,0.00,,,0.00,WUHU21623XXSP,2013-10-02 01:30:00,
2013-10-01 21:35:00,64.0,60.5,30.08,East,90,0.0,0.0,88,0.00,,,0.00,WUHU21623XXSP,2013-10-02 01:35:00,
2013-10-01 21:40:00,64.0,60.5,30.08,East,90,0.0,0.0,88,0.00,,,0.00,WUHU21623XXSP,2013-10-02 01:40:00,
2013-10-01 21:45:00,64.0,60.5,30.09,East,90,0.0,0.0,88,0.00,,,0.00,WUHU21623XXSP,2013-10-02 01:45:00,
2013-10-01 21:50:00,63.9,60.3,30.09,NNE,22,0.0,0.0,88,0.00,,,0.00,WUHU21623XXSP,2013-10-02 01:50:00,
2013-10-01 21:55:00,64.0,60.8,30.09,East,90,0.0,0.0,89,0.00,,,0.00,WUHU21623XXSP,2013-10-02 01:55:00,
2013-10-01 22:00:00,63.7,60.5,30.09,East,90,0.0,0.0,89,0.00,,,0.00,WUHU21623XXSP,2013-10-02 02:00:00,
2013-10-01 22:05:00,63.7,60.5,30.09,East,90,0.0,0.0,89,0.00,,,0.00,WUHU21623XXSP,2013-10-02 02:05:00,
2013-10-01 22:10:00,63.7,60.5,30.10,East,90,0.0,0.0,89,0.00,,,0.00,WUHU21623XXSP,2013-10-02 02:10:00,
2013-10-01 22:15:00,63.7,60.5,30.10,East,90,0.0,0.0,89,0.00,,,0.00,WUHU21623XXSP,2013-10-02 02:15:00,
2013-10-01 22:20:00,63.7,60.5,30.10,East,90,0.0,0.0,89,0.00,,,0.00,WUHU21623XXSP,2013-10-02 02:20:00,
2013-10-01 22:25:00,63.7,60.5,30.10,East,90,0.0,0.0,89,0.00,,,0.00,WUHU21623XXSP,2013-10-02 02:25:00,
2013-10-01 22:30:00,64.0,60.8,30.10,East,90,0.0,0.0,89,0.00,,,0.00,WUHU21623XXSP,2013-10-02 02:30:00,
2013-10-01 22:35:00,64.0,60.8,30.09,East,90,0.0,0.0,89,0.00,,,0.00,WUHU21623XXSP,2013-10-02 02:35:00,
2013-10-01 22:40:00,64.2,61.0,30.10,East,90,0.0,0.0,89,0.00,,,0.00,WUHU21623XXSP,2013-10-02 02:40:00,
2013-10-01 22:45:00,64.2,61.0,30.10,East,90,0.0,0.0,89,0.00,,,0.00,WUHU21623XXSP,2013-10-02 02:45:00,
2013-10-01 22:50:00,64.2,61.0,30.10,East,90,0.0,0.0,89,0.00,,,0.00,WUHU21623XXSP,2013-10-02 02:50:00,
2013-10-01 22:55:00,64.2,61.0,30.10,East,90,0.0,0.0,89,0.00,,,0.00,WUHU21623XXSP,2013-10-02 02:55:00,
2013-10-01 23:00:00,64.0,60.8,30.10,East,90,0.0,0.0,89,0.00,,,0.00,WUHU21623XXSP,2013-10-02 03:00:00,
2013-10-01 23:05:00,64.0,60.8,30.10,East,90,0.0,0.0,89,0.00,,,0.00,WUHU21623XXSP,2013-10-02 03:05:00,
2013-10-01 23:11:00,64.0,60.8,30.11,East,90,0.0,0.0,89,0.00,,,0.00,WUHU21623XXSP,2013-10-02 03:11:00,
2013-10-01 23:16:00,64.0,60.8,30.10,East,90,0.0,0.0,89,0.00,,,0.00,WUHU21623XXSP,2013-10-02 03:16:00,
2013-10-01 23:21:00,64.0,60.8,30.10,East,90,0.0,0.0,89,0.00,,,0.00,WUHU21623XXSP,2013-10-02 03:21:00,
2013-10-01 23:26:00,64.0,60.8,30.10,East,90,0.0,0.0,89,0.00,,,0.00,WUHU21623XXSP,2013-10-02 03:26:00,
2013-10-01 23:31:00,64.0,60.8,30.10,East,90,0.0,0.0,89,0.00,,,0.00,WUHU21623XXSP,2013-10-02 03:31:00,
2013-10-01 23:36:00,64.0,60.8,30.11,East,90,0.0,0.0,89,0.00,,,0.00,WUHU21623XXSP,2013-10-02 03:36:00,
2013-10-01 23:41:00,63.9,60.6,30.10,East,90,0.0,0.0,89,0.00,,,0.00,WUHU21623XXSP,2013-10-02 03:41:00,
2013-10-01 23:46:00,63.7,60.5,30.11,East,90,0.0,0.0,89,0.00,,,0.00,WUHU21623XXSP,2013-10-02 03:46:00,
2013-10-01 23:51:00,63.7,60.5,30.10,NNE,22,0.0,0.0,89,0.00,,,0.00,WUHU21623XXSP,2013-10-02 03:51:00,
2013-10-01 23:56:00,63.7,60.5,30.10,East,90,0.0,0.0,89,0.00,,,0.00,WUHU21623XXSP,2013-10-02 03:56:00,